Zadar, Croatia
Current Conditions -  °F | °C
As of 3:00 PM on Sunday 21 Dec 2014 (Local Time) from LDZD Reporting Station
Clear Clear  
Wind Chill: 57°   Ceiling: Unl
Heat Index: 57°   Visibility: 6mi
Dew Point: 32°   Wind: 10mph
Humidity: 38%   Direction: 260°W
Pressure: 30.36"   Gusts: NA
Location:  44.12°N, 15.24°E
Report Text: LDZD 211400Z 26009KT CAVOK 14/00 Q1028 NOSIG
Loading
Personal Weather Stations






























Interactive Weather Map New forecast layout! Learn more

10-Day Weather Forecast

Advertisements
Track Severe Weather on mobile